Time;durP1;ratioP1;P1;durP2;ratioP2;P2;SDS_P1;SDS_P2;PMS_P1;PMS_P2;Temp;Humidity;BMP_temperature;BMP_pressure;BME280_temperature;BME280_humidity;BME280_pressure;Samples;Min_cycle;Max_cycle;Signal;HPM_P1;HPM_P2
2023/10/23 00:02:20;;;;;;;14.43;6.77;;;;;7.60;96082.00;;;;8466296;27;20345;-63
2023/10/23 00:06:23;;;;;;;12.50;6.80;;;;;7.60;96090.00;;;;8449014;27;20312;-63
2023/10/23 00:10:26;;;;;;;16.40;5.97;;;;;7.60;96102.00;;;;8456168;27;20678;-63
2023/10/23 00:14:31;;;;;;;12.63;6.80;;;;;7.50;96101.00;;;;8447117;27;20201;-63
2023/10/23 00:18:34;;;;;;;26.97;10.33;;;;;7.50;96102.00;;;;8448708;27;20193;-63
2023/10/23 00:22:37;;;;;;;12.50;7.00;;;;;7.50;96114.00;;;;8458603;27;20221;-63
2023/10/23 00:26:40;;;;;;;11.20;6.43;;;;;7.40;96102.00;;;;8453965;27;20551;-63
2023/10/23 00:30:46;;;;;;;13.70;6.50;;;;;7.40;96117.00;;;;8451580;28;20204;-63
2023/10/23 00:34:49;;;;;;;14.27;6.70;;;;;7.30;96121.00;;;;8450420;28;20227;-63
2023/10/23 00:38:52;;;;;;;13.20;6.60;;;;;7.20;96113.00;;;;8449381;28;20290;-63
2023/10/23 00:42:55;;;;;;;15.77;6.00;;;;;7.20;96119.00;;;;8449915;28;20254;-63
2023/10/23 00:47:00;;;;;;;11.07;5.40;;;;;7.20;96119.00;;;;8444849;28;20614;-63
2023/10/23 00:51:04;;;;;;;15.90;6.23;;;;;7.10;96119.00;;;;8435749;28;20295;-63
2023/10/23 00:55:09;;;;;;;9.73;6.00;;;;;7.00;96110.00;;;;8447788;28;20194;-63
2023/10/23 00:59:12;;;;;;;14.70;6.90;;;;;7.00;96118.00;;;;8449788;28;20735;-63
2023/10/23 01:03:17;;;;;;;14.70;6.60;;;;;7.10;96121.00;;;;8450967;28;20713;-63
2023/10/23 01:07:20;;;;;;;12.77;6.70;;;;;7.20;96117.00;;;;8452563;28;20658;-63
2023/10/23 01:11:23;;;;;;;14.10;6.17;;;;;7.20;96112.00;;;;8441889;28;20209;-63
2023/10/23 01:15:26;;;;;;;14.63;7.10;;;;;7.20;96121.00;;;;8448650;28;20194;-63
2023/10/23 01:19:31;;;;;;;15.53;5.90;;;;;7.20;96122.00;;;;8443374;28;20199;-63
2023/10/23 01:23:37;;;;;;;12.00;5.97;;;;;7.30;96111.00;;;;8450070;28;20305;-63
2023/10/23 01:27:41;;;;;;;13.40;6.57;;;;;7.20;96110.00;;;;8446982;28;20278;-63
2023/10/23 01:31:44;;;;;;;12.37;5.83;;;;;7.20;96122.00;;;;8441057;28;20247;-64
2023/10/23 01:35:47;;;;;;;10.17;5.70;;;;;7.10;96124.00;;;;8447282;28;20996;-63
2023/10/23 01:39:51;;;;;;;10.47;5.30;;;;;7.00;96130.00;;;;8451390;27;20202;-64
2023/10/23 01:43:55;;;;;;;12.17;5.57;;;;;6.90;96136.00;;;;8440986;27;20229;-63
2023/10/23 01:47:58;;;;;;;9.60;5.30;;;;;6.90;96135.00;;;;8448953;27;20233;-63
2023/10/23 01:52:01;;;;;;;8.00;5.07;;;;;6.80;96134.00;;;;8447377;27;20555;-63
2023/10/23 01:56:08;;;;;;;8.60;5.10;;;;;6.70;96132.00;;;;8446075;27;20664;-63
2023/10/23 02:00:13;;;;;;;8.30;5.30;;;;;6.70;96137.00;;;;8451414;27;20761;-63
2023/10/23 02:04:16;;;;;;;11.53;5.50;;;;;6.60;96132.00;;;;8450497;27;20230;-63
2023/10/23 02:08:23;;;;;;;11.23;5.10;;;;;6.50;96127.00;;;;8449485;27;20258;-63
2023/10/23 02:12:27;;;;;;;13.77;5.87;;;;;6.40;96127.00;;;;8452244;27;20230;-63
2023/10/23 02:16:32;;;;;;;15.10;5.87;;;;;6.30;96129.00;;;;8444311;27;20206;-63
2023/10/23 02:20:35;;;;;;;11.60;5.70;;;;;6.20;96124.00;;;;8451966;27;20214;-63
2023/10/23 02:24:38;;;;;;;15.90;6.40;;;;;6.10;96127.00;;;;8448684;27;20218;-63
2023/10/23 02:28:41;;;;;;;20.73;7.00;;;;;6.00;96131.00;;;;8454370;27;20214;-63
2023/10/23 02:32:46;;;;;;;9.83;5.30;;;;;6.00;96125.00;;;;8446959;27;20205;-63
2023/10/23 02:36:49;;;;;;;11.93;5.37;;;;;5.90;96128.00;;;;8447742;27;20652;-63
2023/10/23 02:40:53;;;;;;;11.73;5.80;;;;;5.90;96125.00;;;;8447367;27;20783;-63
2023/10/23 02:44:56;;;;;;;14.60;6.70;;;;;5.70;96120.00;;;;8452660;27;20329;-63
2023/10/23 02:49:00;;;;;;;13.63;5.70;;;;;5.70;96131.00;;;;8448306;27;20202;-63
2023/10/23 02:53:05;;;;;;;10.57;5.17;;;;;5.70;96136.00;;;;8444914;27;20202;-63
2023/10/23 02:57:08;;;;;;;11.33;5.53;;;;;5.70;96128.00;;;;8460431;27;20194;-63
2023/10/23 03:01:16;;;;;;;15.63;5.87;;;;;5.60;96137.00;;;;8480762;22;21046;-64
2023/10/23 03:05:21;;;;;;;15.60;5.77;;;;;5.50;96132.00;;;;8402273;28;20232;-63
2023/10/23 03:09:24;;;;;;;18.30;5.97;;;;;5.50;96142.00;;;;8410466;28;20786;-63
2023/10/23 03:13:27;;;;;;;10.83;5.40;;;;;5.50;96136.00;;;;8413392;28;20858;-63
2023/10/23 03:17:31;;;;;;;12.83;5.70;;;;;5.40;96135.00;;;;8407148;28;20195;-63
2023/10/23 03:21:35;;;;;;;15.10;6.27;;;;;5.30;96139.00;;;;8407981;28;20199;-63
2023/10/23 03:25:38;;;;;;;13.57;6.87;;;;;5.30;96148.00;;;;8406879;28;20222;-63
2023/10/23 03:29:43;;;;;;;13.77;6.60;;;;;5.40;96142.00;;;;8412479;28;20201;-63
2023/10/23 03:33:47;;;;;;;11.97;6.23;;;;;5.30;96149.00;;;;8409898;28;20286;-63
2023/10/23 03:37:51;;;;;;;14.40;6.47;;;;;5.30;96144.00;;;;8406090;28;20203;-63
2023/10/23 03:41:55;;;;;;;11.53;6.10;;;;;5.30;96148.00;;;;8412313;28;20209;-63
2023/10/23 03:46:02;;;;;;;13.40;6.23;;;;;5.30;96138.00;;;;8404202;28;20922;-63
2023/10/23 03:50:07;;;;;;;10.87;6.37;;;;;5.20;96133.00;;;;8404755;28;20210;-63
2023/10/23 03:54:11;;;;;;;8.50;5.27;;;;;5.20;96136.00;;;;8412203;28;20203;-63
2023/10/23 03:58:14;;;;;;;10.73;6.10;;;;;5.20;96129.00;;;;8409890;28;20207;-63
2023/10/23 04:02:17;;;;;;;25.90;6.30;;;;;5.10;96133.00;;;;8398671;28;20220;-65
2023/10/23 04:06:21;;;;;;;41.70;7.37;;;;;5.10;96132.00;;;;8377560;28;20254;-63
2023/10/23 04:10:25;;;;;;;17.47;6.40;;;;;5.00;96136.00;;;;8383968;28;20230;-64
2023/10/23 04:14:28;;;;;;;13.60;5.90;;;;;5.00;96145.00;;;;8373717;28;20199;-63
2023/10/23 04:18:32;;;;;;;11.37;5.07;;;;;5.00;96144.00;;;;8366902;28;20203;-63
2023/10/23 04:22:35;;;;;;;28.93;6.30;;;;;5.00;96151.00;;;;8368800;28;20201;-64
2023/10/23 04:26:40;;;;;;;19.13;6.23;;;;;4.80;96139.00;;;;8374268;28;20223;-63
2023/10/23 04:30:43;;;;;;;48.27;8.77;;;;;4.70;96133.00;;;;8382916;28;20724;-63
2023/10/23 04:34:46;;;;;;;10.13;5.37;;;;;4.70;96136.00;;;;8392061;28;20205;-64
2023/10/23 04:38:49;;;;;;;12.17;5.23;;;;;4.60;96142.00;;;;8375886;28;20224;-63
2023/10/23 04:42:53;;;;;;;7.50;5.13;;;;;4.80;96142.00;;;;8375405;28;20280;-64
2023/10/23 04:46:57;;;;;;;13.20;6.13;;;;;4.80;96136.00;;;;8379135;28;20240;-64
2023/10/23 04:51:01;;;;;;;14.67;5.47;;;;;4.90;96149.00;;;;8378379;28;20200;-63
2023/10/23 04:55:04;;;;;;;12.00;6.07;;;;;4.90;96137.00;;;;8373440;28;20218;-62
2023/10/23 04:59:09;;;;;;;18.00;6.70;;;;;4.80;96133.00;;;;8377191;28;20837;-63
2023/10/23 05:03:12;;;;;;;14.93;6.17;;;;;4.70;96131.00;;;;8377030;28;20309;-63
2023/10/23 05:07:15;;;;;;;12.23;5.60;;;;;4.70;96131.00;;;;8374315;28;20700;-62
2023/10/23 05:11:19;;;;;;;10.73;5.43;;;;;4.70;96134.00;;;;8368106;28;20196;-62
2023/10/23 05:15:24;;;;;;;16.33;6.53;;;;;4.60;96138.00;;;;8377516;28;20188;-62
2023/10/23 05:19:27;;;;;;;10.70;5.37;;;;;4.60;96135.00;;;;8378129;28;20244;-62
2023/10/23 05:23:30;;;;;;;16.23;5.13;;;;;4.60;96132.00;;;;8380751;28;20673;-62
2023/10/23 05:27:33;;;;;;;12.93;5.40;;;;;4.50;96144.00;;;;8376373;28;20228;-62
2023/10/23 05:31:38;;;;;;;10.60;6.03;;;;;4.40;96153.00;;;;8383271;28;20200;-62
2023/10/23 05:35:41;;;;;;;12.30;5.50;;;;;4.40;96134.00;;;;8381692;28;20602;-62
2023/10/23 05:39:44;;;;;;;9.37;4.67;;;;;4.40;96131.00;;;;8380843;28;20234;-61
2023/10/23 05:43:47;;;;;;;19.70;5.60;;;;;4.30;96148.00;;;;8378578;28;20246;-63
2023/10/23 05:47:51;;;;;;;9.90;5.30;;;;;4.20;96134.00;;;;8372992;28;21455;-62
2023/10/23 05:51:55;;;;;;;11.47;5.27;;;;;4.10;96147.00;;;;8380959;28;20212;-63
2023/10/23 05:56:02;;;;;;;12.40;5.83;;;;;4.10;96142.00;;;;8379786;28;20234;-63
2023/10/23 06:00:08;;;;;;;15.07;6.17;;;;;4.20;96148.00;;;;8379181;28;20681;-62
2023/10/23 06:04:13;;;;;;;9.50;5.33;;;;;4.20;96153.00;;;;8375866;28;20255;-63
2023/10/23 06:08:16;;;;;;;10.80;6.00;;;;;4.30;96157.00;;;;8375836;28;20286;-62
2023/10/23 06:12:19;;;;;;;19.07;7.10;;;;;4.40;96166.00;;;;8376023;28;20218;-64
2023/10/23 06:16:22;;;;;;;9.03;5.30;;;;;4.50;96162.00;;;;8377020;28;20675;-62
2023/10/23 06:20:27;;;;;;;10.17;5.63;;;;;4.60;96166.00;;;;8372165;28;20208;-62
2023/10/23 06:24:30;;;;;;;9.07;6.00;;;;;4.70;96174.00;;;;8374462;28;20230;-62
2023/10/23 06:28:34;;;;;;;12.57;6.73;;;;;4.70;96171.00;;;;8375147;28;20230;-62
2023/10/23 06:32:37;;;;;;;11.47;6.07;;;;;4.80;96167.00;;;;8376651;28;20337;-62
2023/10/23 06:36:43;;;;;;;7.80;6.00;;;;;4.90;96168.00;;;;8381501;28;20191;-62
2023/10/23 06:40:46;;;;;;;8.60;6.27;;;;;5.00;96172.00;;;;8377445;28;20219;-61
2023/10/23 06:44:49;;;;;;;9.90;5.83;;;;;5.10;96170.00;;;;8378439;28;20230;-62
2023/10/23 06:48:52;;;;;;;9.30;5.67;;;;;5.20;96173.00;;;;8376073;28;20228;-62
2023/10/23 06:52:57;;;;;;;9.67;5.10;;;;;5.30;96163.00;;;;8376765;28;20606;-62
2023/10/23 06:57:06;;;;;;;11.57;5.37;;;;;5.40;96171.00;;;;8369380;28;20288;-62
2023/10/23 07:01:09;;;;;;;9.23;5.90;;;;;5.70;96173.00;;;;8374468;28;20210;-61
2023/10/23 07:05:13;;;;;;;7.50;4.80;;;;;5.90;96172.00;;;;8372035;28;20600;-62
2023/10/23 07:09:18;;;;;;;7.27;4.93;;;;;6.10;96169.00;;;;8368223;28;20291;-61
2023/10/23 07:13:21;;;;;;;11.33;5.23;;;;;6.40;96166.00;;;;8375685;28;20203;-62
2023/10/23 07:17:25;;;;;;;6.57;4.73;;;;;6.60;96169.00;;;;8374382;28;20344;-62
2023/10/23 07:21:28;;;;;;;7.77;4.60;;;;;6.80;96176.00;;;;8376173;28;20249;-62
2023/10/23 07:25:33;;;;;;;6.37;4.37;;;;;7.00;96169.00;;;;8371478;28;20827;-62
2023/10/23 07:29:36;;;;;;;10.00;4.70;;;;;7.20;96188.00;;;;8374735;28;20657;-63
2023/10/23 07:33:40;;;;;;;10.23;4.50;;;;;7.40;96181.00;;;;8370975;28;20227;-62
2023/10/23 07:37:43;;;;;;;9.13;5.60;;;;;7.60;96180.00;;;;8373695;28;20570;-63
2023/10/23 07:41:48;;;;;;;18.00;5.50;;;;;7.80;96178.00;;;;8371965;28;20291;-62
2023/10/23 07:45:51;;;;;;;10.83;5.47;;;;;8.00;96189.00;;;;8374315;28;20746;-62
2023/10/23 07:50:10;;;;;;;11.90;5.40;;;;;8.30;96190.00;;;;8373385;28;20419;-63
2023/10/23 07:54:13;;;;;;;13.30;5.40;;;;;8.60;96193.00;;;;8374341;28;20206;-62
2023/10/23 07:58:18;;;;;;;14.53;5.17;;;;;8.80;96194.00;;;;8371071;28;20704;-62
2023/10/23 08:02:21;;;;;;;12.50;5.40;;;;;9.10;96191.00;;;;8373463;28;20574;-62
2023/10/23 08:06:24;;;;;;;12.20;5.80;;;;;9.40;96184.00;;;;8375652;28;20231;-63
2023/10/23 08:10:27;;;;;;;11.93;5.53;;;;;9.70;96180.00;;;;8378273;28;20198;-63
2023/10/23 08:14:32;;;;;;;11.70;5.20;;;;;9.90;96172.00;;;;8374952;28;20200;-64
2023/10/23 08:18:35;;;;;;;14.20;6.25;;;;;10.10;96167.00;;;;8375382;28;20403;-64
2023/10/23 08:22:43;;;;;;;11.73;6.45;;;;;10.30;96166.00;;;;8380939;28;20212;-64
2023/10/23 08:26:46;;;;;;;8.00;4.55;;;;;10.40;96164.00;;;;8369682;28;20562;-64
2023/10/23 08:30:51;;;;;;;11.00;4.03;;;;;10.60;96156.00;;;;8375892;28;20713;-63
2023/10/23 08:34:54;;;;;;;6.53;3.72;;;;;10.70;96139.00;;;;8373464;28;20203;-61
2023/10/23 08:38:58;;;;;;;8.43;3.80;;;;;10.80;96143.00;;;;8366836;28;20549;-62
2023/10/23 08:43:01;;;;;;;5.47;3.55;;;;;11.10;96153.00;;;;8370472;28;20778;-64
2023/10/23 08:47:06;;;;;;;6.78;3.05;;;;;11.20;96155.00;;;;8374993;28;20227;-65
2023/10/23 08:51:09;;;;;;;7.25;3.17;;;;;11.40;96174.00;;;;8374519;28;20203;-64
2023/10/23 08:55:13;;;;;;;9.80;3.25;;;;;11.70;96183.00;;;;8371613;28;20202;-64
2023/10/23 08:59:17;;;;;;;3.85;2.90;;;;;11.90;96183.00;;;;8378220;28;20243;-62
2023/10/23 09:03:24;;;;;;;5.00;2.97;;;;;12.30;96180.00;;;;8378254;28;20311;-64
2023/10/23 09:07:47;;;;;;;6.53;3.10;;;;;12.60;96179.00;;;;8373581;28;20566;-65
2023/10/23 09:11:50;;;;;;;3.47;2.85;;;;;12.70;96175.00;;;;8381692;28;20741;-65
2023/10/23 09:15:53;;;;;;;6.55;3.33;;;;;12.80;96174.00;;;;8373477;28;20288;-65
2023/10/23 09:19:59;;;;;;;5.45;3.00;;;;;12.80;96171.00;;;;8380779;28;20732;-64
2023/10/23 09:24:03;;;;;;;7.43;2.65;;;;;12.80;96164.00;;;;8376867;28;20295;-64
2023/10/23 09:28:12;;;;;;;3.08;2.50;;;;;12.80;96146.00;;;;8380265;28;20227;-64
2023/10/23 09:32:15;;;;;;;3.65;2.70;;;;;12.90;96157.00;;;;8380123;28;20280;-65
2023/10/23 09:36:20;;;;;;;3.55;2.60;;;;;13.10;96136.00;;;;8376839;28;20218;-65
2023/10/23 09:40:24;;;;;;;3.95;2.58;;;;;13.20;96131.00;;;;8379951;28;20196;-64
2023/10/23 09:44:27;;;;;;;5.35;2.78;;;;;13.40;96127.00;;;;8373378;28;20208;-63
2023/10/23 09:48:31;;;;;;;4.97;3.55;;;;;13.50;96130.00;;;;8373326;28;20343;-62
2023/10/23 09:52:37;;;;;;;7.15;3.53;;;;;13.90;96127.00;;;;8378397;28;20736;-62
2023/10/23 09:56:41;;;;;;;12.00;4.10;;;;;14.10;96120.00;;;;8376582;28;20211;-65
2023/10/23 10:00:47;;;;;;;5.80;3.60;;;;;14.30;96129.00;;;;8371288;28;20217;-62
2023/10/23 10:04:57;;;;;;;5.45;3.25;;;;;14.60;96134.00;;;;8378466;28;20252;-65
2023/10/23 10:09:08;;;;;;;5.00;3.33;;;;;14.80;96117.00;;;;8377065;28;20234;-63
2023/10/23 10:13:11;;;;;;;5.05;3.30;;;;;14.90;96113.00;;;;8374812;28;20192;-62
2023/10/23 10:17:19;;;;;;;7.00;3.63;;;;;14.90;96105.00;;;;8373847;28;20253;-63
2023/10/23 10:21:24;;;;;;;6.10;3.55;;;;;15.10;96111.00;;;;8372285;28;20245;-64
2023/10/23 10:25:29;;;;;;;4.95;3.40;;;;;15.40;96106.00;;;;8371210;28;20207;-63
2023/10/23 10:29:33;;;;;;;3.05;2.80;;;;;15.70;96115.00;;;;8372622;28;20319;-63
2023/10/23 10:33:38;;;;;;;3.67;2.67;;;;;15.80;96119.00;;;;8371945;28;20206;-63
2023/10/23 10:38:03;;;;;;;3.10;2.75;;;;;16.10;96110.00;;;;8370605;28;20539;-63
2023/10/23 10:42:10;;;;;;;5.40;2.80;;;;;16.40;96099.00;;;;8375992;28;20196;-64
2023/10/23 10:46:19;;;;;;;5.13;2.70;;;;;16.40;96087.00;;;;8368412;28;20230;-64
2023/10/23 10:50:36;;;;;;;2.50;2.30;;;;;16.50;96077.00;;;;8372003;28;20192;-64
2023/10/23 10:54:42;;;;;;;3.50;2.30;;;;;16.60;96078.00;;;;8361981;28;20209;-65
2023/10/23 10:58:47;;;;;;;4.90;2.60;;;;;16.80;96077.00;;;;8373551;28;20200;-63
2023/10/23 11:02:50;;;;;;;3.10;2.22;;;;;16.90;96066.00;;;;8368393;28;20243;-64
2023/10/23 11:06:58;;;;;;;3.10;2.40;;;;;17.00;96062.00;;;;8373338;28;20220;-64
2023/10/23 11:11:04;;;;;;;4.70;2.88;;;;;17.00;96050.00;;;;8372817;28;20238;-63
2023/10/23 11:15:10;;;;;;;4.45;2.55;;;;;17.30;96061.00;;;;8371007;28;20223;-63
2023/10/23 11:19:13;;;;;;;3.20;2.42;;;;;17.50;96052.00;;;;8371646;28;20323;-64
2023/10/23 11:23:18;;;;;;;2.55;2.10;;;;;17.80;96059.00;;;;8376785;28;20223;-64
2023/10/23 11:27:21;;;;;;;3.38;2.22;;;;;18.30;96054.00;;;;8372609;28;20223;-64
2023/10/23 11:31:26;;;;;;;14.70;2.60;;;;;18.80;96054.00;;;;8373008;28;20287;-63
2023/10/23 11:35:34;;;;;;;4.78;2.50;;;;;19.00;96051.00;;;;8371951;28;20985;-63
2023/10/23 11:39:39;;;;;;;4.05;2.45;;;;;18.80;96053.00;;;;8373621;28;20200;-64
2023/10/23 11:43:42;;;;;;;3.45;2.10;;;;;18.80;96042.00;;;;8372294;28;20592;-64
2023/10/23 11:47:47;;;;;;;5.28;2.83;;;;;18.80;96031.00;;;;8370688;28;20238;-64
2023/10/23 11:51:51;;;;;;;2.30;2.10;;;;;18.70;96024.00;;;;8369092;28;20278;-64
2023/10/23 11:55:55;;;;;;;4.82;2.33;;;;;18.60;96036.00;;;;8373939;28;20199;-64
2023/10/23 11:59:58;;;;;;;4.03;2.22;;;;;18.50;96022.00;;;;8365134;28;20920;-63
2023/10/23 12:04:04;;;;;;;3.25;2.03;;;;;18.50;96017.00;;;;8364868;28;20270;-63
2023/10/23 12:08:07;;;;;;;2.88;1.90;;;;;18.40;96014.00;;;;8361567;28;20227;-64
2023/10/23 12:12:11;;;;;;;2.60;1.88;;;;;18.40;96003.00;;;;8364438;28;20195;-63
2023/10/23 12:16:14;;;;;;;3.67;1.85;;;;;18.40;95996.00;;;;8364520;28;20199;-64
2023/10/23 12:20:21;;;;;;;4.18;1.98;;;;;18.40;95983.00;;;;8367992;28;20989;-64
2023/10/23 12:24:25;;;;;;;2.70;1.95;;;;;18.40;95974.00;;;;8364353;28;20279;-63
2023/10/23 12:28:28;;;;;;;4.22;1.77;;;;;18.30;95970.00;;;;8362919;28;20234;-64
2023/10/23 12:32:31;;;;;;;1.80;1.70;;;;;18.20;95971.00;;;;8368867;28;20203;-63
2023/10/23 12:36:56;;;;;;;3.63;1.85;;;;;17.90;95971.00;;;;8369550;28;20251;-63
2023/10/23 12:40:59;;;;;;;2.67;1.98;;;;;17.80;95963.00;;;;8368208;28;20323;-64
2023/10/23 12:45:03;;;;;;;2.15;1.83;;;;;17.90;95966.00;;;;8369843;28;20204;-63
2023/10/23 12:49:06;;;;;;;3.88;1.95;;;;;17.90;95958.00;;;;8372336;28;20231;-63
2023/10/23 12:53:12;;;;;;;3.53;1.90;;;;;17.90;95957.00;;;;8369773;28;20200;-63
2023/10/23 12:57:15;;;;;;;3.10;1.83;;;;;17.80;95961.00;;;;8365886;28;20226;-63
2023/10/23 13:01:18;;;;;;;4.88;1.90;;;;;17.80;95941.00;;;;8366221;28;20270;-63
2023/10/23 13:05:22;;;;;;;2.40;1.77;;;;;17.80;95942.00;;;;8369570;28;20238;-63
2023/10/23 13:09:27;;;;;;;4.43;2.00;;;;;17.80;95944.00;;;;8364312;28;20314;-63
2023/10/23 13:13:30;;;;;;;2.22;1.67;;;;;17.60;95933.00;;;;8371088;28;20222;-63
2023/10/23 13:17:33;;;;;;;5.80;1.98;;;;;17.60;95932.00;;;;8370558;28;20226;-63
2023/10/23 13:21:37;;;;;;;2.00;1.73;;;;;17.60;95931.00;;;;8366134;28;20229;-63
2023/10/23 13:25:41;;;;;;;3.00;1.92;;;;;17.70;95923.00;;;;8371401;28;20855;-63
2023/10/23 13:29:45;;;;;;;3.17;1.88;;;;;17.90;95915.00;;;;8375167;28;20909;-63
2023/10/23 13:33:49;;;;;;;9.77;1.75;;;;;17.90;95909.00;;;;8371405;28;20202;-63
2023/10/23 13:37:52;;;;;;;3.40;1.80;;;;;17.90;95902.00;;;;8377886;28;20617;-63
2023/10/23 13:41:56;;;;;;;1.88;1.75;;;;;18.00;95888.00;;;;8376565;28;20291;-63
2023/10/23 13:46:00;;;;;;;7.43;2.33;;;;;18.00;95883.00;;;;8375079;28;20291;-63
2023/10/23 13:50:04;;;;;;;2.58;1.98;;;;;18.10;95880.00;;;;8376145;28;21145;-64
2023/10/23 13:54:07;;;;;;;3.10;1.80;;;;;18.10;95891.00;;;;8377224;28;21370;-63
2023/10/23 13:58:11;;;;;;;3.28;2.10;;;;;18.20;95887.00;;;;8374161;28;20914;-63
2023/10/23 14:02:15;;;;;;;1.77;1.67;;;;;18.10;95897.00;;;;8374809;28;20630;-64
2023/10/23 14:06:18;;;;;;;2.35;2.10;;;;;18.10;95907.00;;;;8375206;28;20198;-63
2023/10/23 14:10:21;;;;;;;3.22;1.70;;;;;18.20;95892.00;;;;8376653;28;20849;-64
2023/10/23 14:14:25;;;;;;;3.95;1.45;;;;;18.30;95869.00;;;;8375896;28;20196;-63
2023/10/23 14:18:29;;;;;;;2.33;1.33;;;;;18.20;95875.00;;;;8378384;28;20188;-63
2023/10/23 14:22:32;;;;;;;2.08;1.95;;;;;18.20;95865.00;;;;8375775;28;21009;-63
2023/10/23 14:26:36;;;;;;;2.28;1.45;;;;;18.10;95861.00;;;;8380729;28;20200;-63
2023/10/23 14:30:40;;;;;;;3.72;1.52;;;;;18.00;95864.00;;;;8369082;28;20216;-63
2023/10/23 14:34:44;;;;;;;5.85;1.70;;;;;18.00;95878.00;;;;8372390;28;20211;-63
2023/10/23 14:38:47;;;;;;;5.97;2.13;;;;;17.90;95884.00;;;;8374858;28;20197;-63
2023/10/23 14:42:50;;;;;;;1.90;1.80;;;;;17.90;95881.00;;;;8369257;28;20224;-63
2023/10/23 14:46:55;;;;;;;1.92;1.65;;;;;17.90;95871.00;;;;8373746;28;20211;-63
2023/10/23 14:50:58;;;;;;;3.30;1.40;;;;;17.90;95868.00;;;;8371670;28;20673;-63
2023/10/23 14:55:03;;;;;;;5.25;1.73;;;;;17.90;95841.00;;;;8376392;28;20747;-63
2023/10/23 14:59:06;;;;;;;3.70;1.48;;;;;17.80;95831.00;;;;8382024;28;20242;-63
2023/10/23 15:03:10;;;;;;;2.28;1.40;;;;;17.60;95832.00;;;;8377481;28;20266;-62
2023/10/23 15:07:14;;;;;;;2.45;1.25;;;;;17.50;95828.00;;;;8375747;28;20286;-63
2023/10/23 15:11:20;;;;;;;4.15;1.52;;;;;17.40;95827.00;;;;8366966;28;20919;-63
2023/10/23 15:15:23;;;;;;;3.38;2.00;;;;;17.30;95832.00;;;;8376797;28;20278;-62
2023/10/23 15:19:28;;;;;;;5.90;1.52;;;;;17.10;95818.00;;;;8379684;28;20236;-62
2023/10/23 15:23:32;;;;;;;2.28;1.30;;;;;16.90;95817.00;;;;8376559;28;20236;-62
2023/10/23 15:27:35;;;;;;;2.20;1.48;;;;;16.80;95814.00;;;;8378395;28;20757;-62
2023/10/23 15:31:38;;;;;;;2.40;1.80;;;;;16.60;95808.00;;;;8377224;28;20278;-62
2023/10/23 15:35:43;;;;;;;2.63;1.60;;;;;16.50;95788.00;;;;8376706;28;20262;-62
2023/10/23 15:39:46;;;;;;;1.95;1.30;;;;;16.40;95777.00;;;;8373928;28;20291;-62
2023/10/23 15:43:52;;;;;;;5.70;1.65;;;;;16.30;95767.00;;;;8375422;28;20786;-62
2023/10/23 15:47:59;;;;;;;1.58;1.48;;;;;16.10;95765.00;;;;8377173;28;20714;-61
2023/10/23 15:52:04;;;;;;;4.15;1.58;;;;;16.00;95754.00;;;;8376578;28;20254;-62
2023/10/23 15:56:08;;;;;;;2.28;1.50;;;;;15.90;95753.00;;;;8373338;28;20315;-61
2023/10/23 16:00:14;;;;;;;1.80;1.35;;;;;15.80;95760.00;;;;8375255;28;20232;-62
2023/10/23 16:04:17;;;;;;;3.13;1.60;;;;;15.70;95766.00;;;;8372405;28;20589;-62
2023/10/23 16:08:21;;;;;;;2.28;1.75;;;;;15.70;95726.00;;;;8371389;28;20220;-61
2023/10/23 16:12:24;;;;;;;4.03;1.70;;;;;15.50;95749.00;;;;8382321;28;20652;-62
2023/10/23 16:16:28;;;;;;;5.93;2.45;;;;;15.20;95752.00;;;;8376626;28;20918;-62
2023/10/23 16:20:32;;;;;;;6.57;3.83;;;;;14.80;95728.00;;;;8373726;28;20948;-62
2023/10/23 16:24:36;;;;;;;4.80;1.95;;;;;14.70;95718.00;;;;8371881;28;20202;-62
2023/10/23 16:28:40;;;;;;;5.13;2.03;;;;;14.50;95730.00;;;;8373571;28;20223;-62
2023/10/23 16:32:44;;;;;;;3.70;2.17;;;;;14.40;95718.00;;;;8370513;28;20309;-63
2023/10/23 16:36:48;;;;;;;2.17;2.00;;;;;14.40;95721.00;;;;8371951;28;20196;-63
2023/10/23 16:40:52;;;;;;;3.78;2.35;;;;;14.20;95721.00;;;;8374029;28;20886;-63
2023/10/23 16:44:55;;;;;;;7.22;3.55;;;;;14.10;95723.00;;;;8373634;28;20605;-62
2023/10/23 16:48:59;;;;;;;3.03;1.98;;;;;14.00;95726.00;;;;8378031;28;20701;-63
2023/10/23 16:53:03;;;;;;;2.30;2.10;;;;;14.10;95720.00;;;;8376752;28;20196;-62
2023/10/23 16:57:10;;;;;;;2.55;1.95;;;;;14.00;95724.00;;;;8375653;28;20192;-63
2023/10/23 17:01:13;;;;;;;5.63;2.40;;;;;13.90;95717.00;;;;8371841;28;20207;-63
2023/10/23 17:05:17;;;;;;;4.93;2.67;;;;;13.70;95708.00;;;;8360429;28;20196;-62
2023/10/23 17:09:20;;;;;;;4.90;2.65;;;;;13.60;95683.00;;;;8378949;28;20768;-62
2023/10/23 17:13:25;;;;;;;9.85;2.75;;;;;13.50;95697.00;;;;8379020;28;20287;-62
2023/10/23 17:17:28;;;;;;;13.43;3.20;;;;;13.50;95691.00;;;;8382249;28;20204;-62
2023/10/23 17:21:31;;;;;;;5.70;3.00;;;;;13.40;95673.00;;;;8374984;28;20189;-62
2023/10/23 17:25:40;;;;;;;4.63;2.53;;;;;13.40;95668.00;;;;8375793;28;20315;-61
2023/10/23 17:29:44;;;;;;;6.13;2.58;;;;;13.30;95674.00;;;;8377872;28;20228;-61
2023/10/23 17:33:47;;;;;;;7.20;2.67;;;;;13.20;95670.00;;;;8380374;28;20283;-61
2023/10/23 17:37:52;;;;;;;5.00;3.20;;;;;13.10;95683.00;;;;8375822;28;20202;-61
2023/10/23 17:41:55;;;;;;;5.25;3.28;;;;;13.00;95687.00;;;;8379855;28;20731;-61
2023/10/23 17:46:02;;;;;;;5.88;3.30;;;;;13.00;95686.00;;;;8378719;28;20208;-62
2023/10/23 17:50:07;;;;;;;6.88;3.53;;;;;13.00;95688.00;;;;8374298;28;20240;-61
2023/10/23 17:54:11;;;;;;;7.40;3.38;;;;;13.00;95690.00;;;;8378581;28;20231;-61
2023/10/23 17:58:14;;;;;;;5.10;2.95;;;;;12.90;95678.00;;;;8375825;28;20188;-62
2023/10/23 18:02:19;;;;;;;6.72;3.95;;;;;12.90;95668.00;;;;8375605;28;20301;-61
2023/10/23 18:06:22;;;;;;;4.63;3.35;;;;;12.80;95682.00;;;;8377748;28;20319;-61
2023/10/23 18:10:25;;;;;;;13.73;4.43;;;;;12.80;95670.00;;;;8376491;28;20323;-61
2023/10/23 18:14:28;;;;;;;6.00;3.75;;;;;12.70;95657.00;;;;8370052;28;20263;-61
2023/10/23 18:18:33;;;;;;;7.97;3.28;;;;;12.60;95660.00;;;;8376183;28;20634;-61
2023/10/23 18:22:37;;;;;;;11.93;4.32;;;;;12.60;95645.00;;;;8379815;28;20235;-62
2023/10/23 18:26:40;;;;;;;8.43;4.07;;;;;12.60;95634.00;;;;8372791;28;20258;-62
2023/10/23 18:30:44;;;;;;;5.88;3.28;;;;;12.60;95623.00;;;;8377522;28;20257;-62
2023/10/23 18:34:50;;;;;;;7.85;2.85;;;;;12.60;95607.00;;;;8373326;28;20276;-61
2023/10/23 18:38:53;;;;;;;4.65;2.80;;;;;12.60;95593.00;;;;8367857;28;20242;-61
2023/10/23 18:42:59;;;;;;;3.65;2.50;;;;;12.70;95604.00;;;;8375418;28;20207;-62
2023/10/23 18:47:04;;;;;;;7.18;4.82;;;;;12.70;95609.00;;;;8376503;28;20193;-62
2023/10/23 18:51:10;;;;;;;4.55;3.10;;;;;12.70;95608.00;;;;8371570;28;20227;-62
2023/10/23 18:55:15;;;;;;;6.28;3.33;;;;;12.60;95610.00;;;;8372301;28;20231;-62
2023/10/23 18:59:19;;;;;;;8.93;5.25;;;;;12.60;95610.00;;;;8371129;28;20923;-61
2023/10/23 19:03:22;;;;;;;8.13;5.05;;;;;12.60;95600.00;;;;8368790;28;20318;-62
2023/10/23 19:07:27;;;;;;;14.10;4.53;;;;;12.60;95605.00;;;;8366799;28;20208;-62
2023/10/23 19:11:30;;;;;;;4.97;3.45;;;;;12.60;95610.00;;;;8366881;28;20723;-62
2023/10/23 19:15:34;;;;;;;19.27;7.97;;;;;12.60;95613.00;;;;8371091;28;20208;-62
2023/10/23 19:19:37;;;;;;;16.48;6.78;;;;;12.60;95621.00;;;;8372976;28;20834;-62
2023/10/23 19:23:44;;;;;;;9.10;3.95;;;;;12.60;95617.00;;;;8371691;28;20217;-62
2023/10/23 19:27:48;;;;;;;6.43;3.40;;;;;12.60;95616.00;;;;8372123;28;20281;-63
2023/10/23 19:31:52;;;;;;;5.72;3.60;;;;;12.60;95608.00;;;;8376871;28;20644;-62
2023/10/23 19:35:56;;;;;;;6.30;3.25;;;;;12.60;95600.00;;;;8366311;28;20203;-62
2023/10/23 19:40:04;;;;;;;6.55;3.47;;;;;12.60;95600.00;;;;8368107;28;20719;-62
2023/10/23 19:44:08;;;;;;;5.25;3.85;;;;;12.70;95607.00;;;;8375928;28;20196;-62
2023/10/23 19:48:12;;;;;;;7.05;3.78;;;;;12.70;95607.00;;;;8368999;28;20196;-62
2023/10/23 19:52:17;;;;;;;7.97;3.65;;;;;12.70;95600.00;;;;8369227;28;20224;-62
2023/10/23 19:56:22;;;;;;;6.75;4.15;;;;;12.80;95604.00;;;;8370148;28;20878;-62
2023/10/23 20:00:34;;;;;;;5.53;3.70;;;;;12.80;95601.00;;;;8369663;28;20751;-62
2023/10/23 20:04:38;;;;;;;7.28;3.60;;;;;12.90;95604.00;;;;8378726;28;20223;-62
2023/10/23 20:08:41;;;;;;;6.53;3.97;;;;;12.90;95602.00;;;;8377623;28;20200;-61
2023/10/23 20:12:45;;;;;;;6.53;4.35;;;;;13.00;95596.00;;;;8373255;28;20223;-61
2023/10/23 20:16:49;;;;;;;6.35;4.30;;;;;13.00;95589.00;;;;8372336;28;20566;-62
2023/10/23 20:20:55;;;;;;;9.73;4.55;;;;;13.00;95593.00;;;;8381710;28;20199;-63
2023/10/23 20:24:59;;;;;;;5.95;4.07;;;;;13.10;95591.00;;;;8373505;28;20227;-62